LEGTLETO

Guest
Details From LEGT - Getafe
To LETO - Torrejon
Flight Number -
Tags generated
Created
Modified
Stats Distance 18 nm / 34 km
Max Altitude 1,100 ft / 335 m
Waypoints 3
Social Downloads 0
Likes 0
Share VATSIM

Download

Looking for another format? Having issues loading an existing format? Contact us
Advertisement - Login to hide

Notes

Basic altitude profile: - Ascent Rate: 2500ft/min - Ascent Speed: 250kts - Cruise Altitude: 35000ft - Cruise Speed: 420kts - Descent Rate: 1500ft/min - Descent Speed: 250kts Options: - Use NATs: yes - Use PACOTS: yes - Use low airways: yes - Use high airways: yes

Route

LEGT BRA LETO

ID Type Via Altitude Latitude Longitude Leg Dist Tot Dist Heading (true) Name
O LEGT APT - 0 ft / 0 m 40.29315˚ -3.72248˚ - 0 nm - Getafe
BRA VOR - 1,100 ft / 335 m 40.46914˚ -3.55753˚ 12 nm 12 nm 35° / 36° BARAJAS VOR-DME
O LETO APT - 0 ft / 0 m 40.49675˚ -3.44587˚ 5 nm 18 nm 72° / 72° Torrejon

Altitude Profile

Advertisement - Login to hide

LEGT

Details ICAO LEGT
Name Getafe
Region Spain
Timezone Europe/Madrid (UTC+1.0)
Stats Elevation 2,029 ft / 618 m (AMSL)
Location 40.293152° -3.722481°
Runways 2
Magnetic Variation 0.728° W

METAR

LEGT 110600Z 24018G30KT 200V290 9999 SCT017 BKN031 BKN041 06/05 Q0992

Decode

TAF

Not found

Departure Runways

ID Width Length Bearing (true) Bearing (mag) Surface Threshold Offset Overrun Length
05 197 ft / 60 m 8,130 ft / 2,478 m 45.08° 45.81° Asphalt 0 ft / 0 m 410 ft / 125 m
05R 98 ft / 30 m 3,093 ft / 943 m 44.78° 45.51° Dirt 0 ft / 0 m 0 ft / 0 m
23 197 ft / 60 m 8,130 ft / 2,478 m 225.10° 225.83° Asphalt 0 ft / 0 m 492 ft / 150 m
23L 98 ft / 30 m 3,093 ft / 943 m 224.79° 225.52° Dirt 0 ft / 0 m 0 ft / 0 m

LETO

Details ICAO LETO (TOJ)
Name Torrejon
Region Spain
Timezone Europe/Madrid (UTC+1.0)
Stats Elevation 2,025 ft / 617 m (AMSL)
Location 40.496746° -3.445870°
Runways 1
Magnetic Variation 0.654° W

METAR

LETO 110600Z 20014KT 9999 SCT015 BKN030 07/07 Q0992 BECMG NSW

Decode

TAF

TAF LETO 110500Z 1106/1206 22018KT 9999 SCT020 BKN040 TX10/1113Z TNM00/1206Z TEMPO 1106/1109 3000 RA BKN010 PROB30 TEMPO 1114/1120 SHRA BKN014TCU BECMG 1107/1108 24013KT SCT020 TEMPO 1106/1118 25015G27KT BECMG 1119/1120 VRB04KT

Decode

Destination Runways

ID Width Length Bearing (true) Bearing (mag) Surface Threshold Offset Overrun Length
05 217 ft / 66 m 12,004 ft / 3,659 m 43.28° 43.93° Asphalt 0 ft / 0 m 2,739 ft / 835 m
23 217 ft / 66 m 12,004 ft / 3,659 m 223.30° 223.95° Asphalt 0 ft / 0 m 1,066 ft / 325 m

Approach Navaids

Runway Type Ident Frequency Range Bearing (true) Bearing (mag) Slope Elevation
23 Localiser ITJA 109.50 MHz 18 nm / 33 km 223.26° 223.92° - 2,025 ft / 617 m (AMSL)
23 Glidescope ITJA 109.50 MHz 10 nm / 19 km 223.29° 223.94° 3.00° 2,025 ft / 617 m (AMSL)
23 DME ITJA 109.50 MHz 18 nm / 33 km - - - 2,011 ft / 613 m (AMSL)